WMKC/KBR METAR and TAF weather

Enter ICAO airport designator
Station Type Date Time Source
WMKC METAR 2021/07/28 20:00 UTC NOAA

WMKC 282000Z 00000KT 9999 FEW017CB 26/24 Q1007


Station Type Date Time Source
WMKC Decoded METAR 2021/07/28 20:00 UTC NOAA

Kota Bharu, Malaysia (WMKC) 06-10N 102-17E 5M
Jul 28, 2021 - 04:00 PM EDT / 2021.07.28 2000 UTC
Wind: Calm:0
Visibility: greater than 7 mile(s):0
Sky conditions: mostly clear
Weather: Cumulonimbus clouds observed
Temperature: 78 F (26 C)
Dew Point: 75 F (24 C)
Relative Humidity: 88%
Pressure (altimeter): 29.74 in. Hg (1007 hPa)
ob: WMKC 282000Z 00000KT 9999 FEW017CB 26/24 Q1007
cycle: 20

Station Type Date Time Source
WMKC TAF 2021/07/28 18:00 UTC NOAA

TAF WMKC 281700Z 2818/2918 VRB03KT 9999 FEW020
TEMPO 2909/2912 7000 -TSRA FEW017CB

Example: see airport list